Time;durP1;ratioP1;P1;durP2;ratioP2;P2;SDS_P1;SDS_P2;PMS_P1;PMS_P2;Temp;Humidity;BMP_temperature;BMP_pressure;BME280_temperature;BME280_humidity;BME280_pressure;Samples;Min_cycle;Max_cycle;Signal;HPM_P1;HPM_P2
2023/12/30 00:00:12;;;;;;;1.55;0.70;;;;;;;10.62;77.42;99309.22;333485;29;5295;-82
2023/12/30 00:00:30;;;;;;;1.17;0.60;;;;;;;10.58;77.91;99298.13;330642;29;17793;-82
2023/12/30 00:00:42;;;;;;;1.58;0.63;;;;;;;10.58;77.91;99312.84;330853;29;18618;-81
2023/12/30 00:00:55;;;;;;;1.42;0.70;;;;;;;10.51;78.03;99301.84;333782;29;5488;-82
2023/12/30 00:01:07;;;;;;;1.42;0.82;;;;;;;10.50;78.23;99301.88;331723;29;12719;-82
2023/12/30 00:01:21;;;;;;;1.92;1.00;;;;;;;10.40;78.36;99301.38;334286;29;4550;-82
2023/12/30 00:01:33;;;;;;;1.95;0.80;;;;;;;10.48;78.51;99301.09;331939;29;17991;-82
2023/12/30 00:01:45;;;;;;;2.25;0.70;;;;;;;10.47;78.54;99299.41;334746;29;4557;-82
2023/12/30 00:01:57;;;;;;;1.95;0.60;;;;;;;10.49;78.31;99300.22;332424;28;5413;-81
2023/12/30 00:02:09;;;;;;;2.35;0.70;;;;;;;10.55;78.00;99302.56;331199;29;18756;-82
2023/12/30 00:02:21;;;;;;;3.10;0.70;;;;;;;10.49;78.03;99305.41;335906;29;4572;-82
2023/12/30 00:02:33;;;;;;;2.58;0.60;;;;;;;10.50;78.34;99291.50;332609;29;17955;-82
2023/12/30 00:02:48;;;;;;;2.40;0.60;;;;;;;10.54;77.89;99299.13;334422;29;5111;-82
2023/12/30 00:03:00;;;;;;;1.40;0.50;;;;;;;10.57;77.81;99311.16;331878;29;19154;-81
2023/12/30 00:03:13;;;;;;;0.88;0.60;;;;;;;10.55;78.01;99303.41;327210;28;10344;-82
2023/12/30 00:03:25;;;;;;;1.10;0.70;;;;;;;10.51;77.64;99306.19;335393;29;4642;-81
2023/12/30 00:03:37;;;;;;;1.23;0.60;;;;;;;10.48;78.46;99303.69;335739;29;5428;-82
2023/12/30 00:03:49;;;;;;;0.73;0.40;;;;;;;10.49;78.23;99303.66;332414;29;17792;-81
2023/12/30 00:04:01;;;;;;;0.65;0.50;;;;;;;10.52;78.49;99302.69;335645;29;5854;-82
2023/12/30 00:04:14;;;;;;;0.82;0.63;;;;;;;10.59;77.95;99298.94;333297;29;4638;-82
2023/12/30 00:04:26;;;;;;;0.95;0.60;;;;;;;10.57;77.92;99305.97;334663;29;4743;-82
2023/12/30 00:04:38;;;;;;;1.17;0.70;;;;;;;10.50;78.50;99304.47;332991;29;4558;-83
2023/12/30 00:04:50;;;;;;;1.20;0.70;;;;;;;10.48;78.22;99301.09;326728;29;19013;-82
2023/12/30 00:05:03;;;;;;;1.02;0.60;;;;;;;10.45;78.54;99296.03;334396;29;4588;-82
2023/12/30 00:05:16;;;;;;;0.93;0.65;;;;;;;10.47;78.80;99300.25;331388;29;18343;-82
2023/12/30 00:05:28;;;;;;;0.98;0.70;;;;;;;10.51;78.36;99301.00;333350;29;4668;-81
2023/12/30 00:05:41;;;;;;;1.30;0.80;;;;;;;10.49;78.50;99297.63;331227;29;19177;-82
2023/12/30 00:05:53;;;;;;;1.00;0.60;;;;;;;10.47;78.67;99308.06;334612;29;4645;-82
2023/12/30 00:06:05;;;;;;;0.85;0.68;;;;;;;10.47;78.34;99307.22;328041;29;16570;-82
2023/12/30 00:06:19;;;;;;;0.95;0.60;;;;;;;10.42;79.03;99301.34;333490;29;4767;-82
2023/12/30 00:06:32;;;;;;;1.20;0.63;;;;;;;10.39;78.62;99297.09;330565;29;18018;-82
2023/12/30 00:06:44;;;;;;;0.80;0.60;;;;;;;10.46;78.79;99297.72;331656;29;18322;-82
2023/12/30 00:06:56;;;;;;;0.70;0.50;;;;;;;10.46;78.77;99303.75;335836;29;5015;-82
2023/12/30 00:07:10;;;;;;;0.68;0.50;;;;;;;10.46;78.28;99300.31;335316;29;4543;-82
2023/12/30 00:07:22;;;;;;;0.90;0.60;;;;;;;10.42;79.03;99306.53;333004;29;18301;-82
2023/12/30 00:07:34;;;;;;;1.00;0.63;;;;;;;10.43;79.17;99297.84;335316;29;4652;-82
2023/12/30 00:07:46;;;;;;;1.05;0.70;;;;;;;10.39;79.13;99302.31;327516;29;18358;-82
2023/12/30 00:07:58;;;;;;;0.90;0.60;;;;;;;10.39;79.07;99302.31;335730;29;4758;-82
2023/12/30 00:08:10;;;;;;;0.73;0.50;;;;;;;10.37;79.06;99302.34;333117;29;19615;-82
2023/12/30 00:08:22;;;;;;;1.00;0.68;;;;;;;10.38;79.47;99301.47;336583;28;5272;-82
2023/12/30 00:08:34;;;;;;;1.40;0.90;;;;;;;10.38;79.43;99296.28;333336;29;13614;-82
2023/12/30 00:08:46;;;;;;;1.17;0.82;;;;;;;10.38;78.92;99306.66;333186;29;18041;-82
2023/12/30 00:08:58;;;;;;;0.95;0.63;;;;;;;10.36;79.30;99289.41;334383;29;5453;-82
2023/12/30 00:09:10;;;;;;;0.65;0.50;;;;;;;10.44;78.89;99299.53;331358;29;5494;-82
2023/12/30 00:09:22;;;;;;;0.95;0.60;;;;;;;10.43;79.12;99303.03;334354;29;5858;-82
2023/12/30 00:09:34;;;;;;;1.17;0.70;;;;;;;10.39;78.91;99303.13;333808;29;4655;-81
2023/12/30 00:09:46;;;;;;;1.00;0.60;;;;;;;10.39;79.05;99310.94;330829;29;19757;-82
2023/12/30 00:09:58;;;;;;;0.82;0.57;;;;;;;10.43;79.05;99297.84;335350;29;4565;-82
2023/12/30 00:10:11;;;;;;;1.08;0.60;;;;;;;10.45;78.70;99302.06;332708;29;12430;-82
2023/12/30 00:10:23;;;;;;;1.05;0.63;;;;;;;10.34;79.39;99309.41;333418;29;4547;-82
2023/12/30 00:10:35;;;;;;;1.35;0.60;;;;;;;10.34;79.32;99294.69;331721;29;4748;-82
2023/12/30 00:10:47;;;;;;;2.58;0.60;;;;;;;10.37;79.08;99307.56;330532;29;16575;-82
2023/12/30 00:10:59;;;;;;;2.15;0.60;;;;;;;10.36;79.21;99303.28;335299;28;4963;-82
2023/12/30 00:11:11;;;;;;;1.10;0.45;;;;;;;10.36;79.49;99305.88;332682;28;17798;-82
2023/12/30 00:11:23;;;;;;;2.35;0.50;;;;;;;10.36;79.49;99298.06;334583;29;4606;-82
2023/12/30 00:11:35;;;;;;;2.85;0.50;;;;;;;10.37;79.38;99301.50;332964;29;4532;-82
2023/12/30 00:11:47;;;;;;;3.63;0.70;;;;;;;10.33;79.74;99292.97;331402;29;17714;-82
2023/12/30 00:11:59;;;;;;;2.80;0.80;;;;;;;10.23;79.99;99296.78;329047;29;5347;-82
2023/12/30 00:12:11;;;;;;;1.02;0.63;;;;;;;10.22;79.90;99295.09;332101;29;17756;-82
2023/12/30 00:12:24;;;;;;;0.60;0.50;;;;;;;10.22;79.82;99297.69;335360;29;4871;-82
2023/12/30 00:12:36;;;;;;;0.70;0.60;;;;;;;10.19;80.61;99308.19;333086;29;13010;-82
2023/12/30 00:12:48;;;;;;;0.80;0.60;;;;;;;10.22;80.00;99295.09;335780;29;4561;-82
2023/12/30 00:13:02;;;;;;;1.52;0.70;;;;;;;10.20;80.34;99307.28;336354;28;4577;-82
2023/12/30 00:13:14;;;;;;;1.55;0.70;;;;;;;10.26;80.22;99304.50;330431;29;17888;-81
2023/12/30 00:13:26;;;;;;;0.73;0.60;;;;;;;10.32;79.45;99306.88;330758;29;11241;-82
2023/12/30 00:13:38;;;;;;;1.83;0.52;;;;;;;10.31;79.70;99304.34;333870;29;4616;-82
2023/12/30 00:13:50;;;;;;;1.90;0.60;;;;;;;10.31;79.85;99301.75;332617;29;5088;-82
2023/12/30 00:14:04;;;;;;;0.90;0.60;;;;;;;10.31;79.83;99299.97;330806;29;17361;-82
2023/12/30 00:14:16;;;;;;;0.68;0.63;;;;;;;10.37;79.51;99299.75;330083;29;10921;-82
2023/12/30 00:14:28;;;;;;;0.77;0.73;;;;;;;10.34;79.32;99304.22;333252;29;5564;-82
2023/12/30 00:14:40;;;;;;;1.05;0.70;;;;;;;10.36;79.64;99298.06;331826;29;4631;-82
2023/12/30 00:14:52;;;;;;;1.70;0.65;;;;;;;10.35;79.98;99304.16;329962;29;12925;-82
2023/12/30 00:15:04;;;;;;;2.05;0.73;;;;;;;10.28;80.29;99304.41;329801;29;18115;-82
2023/12/30 00:15:16;;;;;;;2.80;0.80;;;;;;;10.24;80.44;99302.81;332874;29;5089;-82
2023/12/30 00:15:28;;;;;;;2.00;0.70;;;;;;;10.19;80.80;99306.44;329803;29;18193;-82
2023/12/30 00:15:40;;;;;;;1.10;0.60;;;;;;;10.18;80.55;99298.69;332805;29;4553;-82
2023/12/30 00:15:52;;;;;;;1.13;0.70;;;;;;;10.15;81.15;99306.63;331078;29;4850;-82
2023/12/30 00:16:05;;;;;;;1.10;0.77;;;;;;;10.09;81.14;99305.09;333798;29;4564;-82
2023/12/30 00:16:17;;;;;;;1.17;0.88;;;;;;;10.05;80.99;99307.84;326093;29;6047;-82
2023/12/30 00:16:29;;;;;;;1.45;0.90;;;;;;;10.02;81.45;99313.16;334358;29;4582;-82
2023/12/30 00:16:41;;;;;;;3.08;1.00;;;;;;;9.99;81.21;99308.91;333940;29;4879;-82
2023/12/30 00:16:53;;;;;;;3.22;0.95;;;;;;;9.92;81.75;99297.91;328884;29;17504;-82
2023/12/30 00:17:05;;;;;;;2.00;0.82;;;;;;;10.00;81.33;99311.47;335431;29;5090;-82
2023/12/30 00:17:18;;;;;;;1.80;0.80;;;;;;;10.10;81.44;99300.72;332895;29;4633;-82
2023/12/30 00:17:30;;;;;;;1.90;0.70;;;;;;;10.16;81.15;99310.91;334338;29;4552;-82
2023/12/30 00:17:42;;;;;;;1.30;0.77;;;;;;;10.14;80.97;99315.28;328861;29;4802;-82
2023/12/30 00:17:54;;;;;;;1.58;0.90;;;;;;;10.17;80.63;99310.00;334670;29;4569;-82
2023/12/30 00:18:06;;;;;;;1.58;0.90;;;;;;;10.14;80.89;99310.09;333759;29;4545;-82
2023/12/30 00:18:18;;;;;;;1.33;0.80;;;;;;;10.18;80.79;99311.69;331248;29;18530;-82
2023/12/30 00:18:30;;;;;;;1.60;0.77;;;;;;;10.16;80.69;99305.69;334584;29;4570;-82
2023/12/30 00:18:43;;;;;;;1.35;0.65;;;;;;;10.14;80.73;99317.91;330891;29;18194;-82
2023/12/30 00:18:56;;;;;;;1.05;0.60;;;;;;;10.25;80.71;99299.34;333875;29;4610;-82
2023/12/30 00:19:08;;;;;;;1.88;0.70;;;;;;;10.25;80.13;99295.00;327722;29;18344;-82
2023/12/30 00:19:20;;;;;;;1.92;0.70;;;;;;;10.28;80.26;99294.00;332163;29;17774;-82
2023/12/30 00:19:34;;;;;;;1.02;0.70;;;;;;;10.32;79.89;99301.69;332391;28;13254;-82
2023/12/30 00:19:47;;;;;;;1.05;0.73;;;;;;;10.28;79.74;99294.88;335517;29;5114;-82
2023/12/30 00:19:59;;;;;;;1.10;0.70;;;;;;;10.22;80.14;99300.28;332316;29;12423;-82
2023/12/30 00:20:12;;;;;;;0.95;0.60;;;;;;;10.23;80.61;99306.34;334114;29;5400;-82
2023/12/30 00:20:25;;;;;;;0.60;0.45;;;;;;;10.16;80.43;99305.69;331700;29;17927;-82
2023/12/30 00:20:37;;;;;;;0.75;0.55;;;;;;;10.21;80.29;99303.78;327947;29;4558;-82
2023/12/30 00:20:49;;;;;;;1.15;0.73;;;;;;;10.17;80.27;99303.06;330949;29;17648;-82
2023/12/30 00:21:01;;;;;;;1.10;0.75;;;;;;;10.17;80.45;99302.22;333507;29;4537;-82
2023/12/30 00:21:21;;;;;;;1.05;0.80;;;;;;;10.24;80.79;99298.50;331265;29;5454;-82
2023/12/30 00:21:33;;;;;;;1.05;0.70;;;;;;;10.21;80.59;99293.41;331834;29;18567;-82
2023/12/30 00:21:45;;;;;;;1.23;0.65;;;;;;;10.22;80.15;99310.66;333919;29;4798;-82
2023/12/30 00:21:57;;;;;;;2.35;0.57;;;;;;;10.33;80.13;99297.34;334123;29;4919;-82
2023/12/30 00:22:09;;;;;;;2.15;0.50;;;;;;;10.35;79.91;99296.38;332175;29;18367;-82
2023/12/30 00:22:21;;;;;;;0.70;0.50;;;;;;;10.29;79.86;99296.56;337173;29;5841;-82
2023/12/30 00:22:33;;;;;;;0.88;0.50;;;;;;;10.23;80.29;99295.97;334022;29;18659;-82
2023/12/30 00:22:45;;;;;;;0.85;0.50;;;;;;;10.15;80.79;99298.81;333084;29;4619;-82
2023/12/30 00:22:57;;;;;;;1.30;0.50;;;;;;;10.14;80.78;99291.91;332716;29;4662;-82
2023/12/30 00:23:10;;;;;;;1.92;0.68;;;;;;;10.15;80.91;99304.03;329319;29;19326;-82
2023/12/30 00:23:22;;;;;;;1.67;0.65;;;;;;;10.07;80.80;99299.09;331464;29;4559;-82
2023/12/30 00:23:35;;;;;;;1.40;0.60;;;;;;;10.00;81.03;99293.28;329318;29;18398;-82
2023/12/30 00:23:56;;;;;;;0.88;0.70;;;;;;;10.00;81.34;99295.88;329334;29;19193;-82
2023/12/30 00:24:08;;;;;;;0.77;0.60;;;;;;;9.96;81.77;99296.91;331860;29;11888;-82
2023/12/30 00:24:20;;;;;;;0.75;0.60;;;;;;;9.98;81.87;99292.50;332746;29;18894;-82
2023/12/30 00:24:34;;;;;;;2.70;0.60;;;;;;;9.96;81.62;99294.31;334068;29;4584;-82
2023/12/30 00:24:47;;;;;;;2.83;0.70;;;;;;;9.99;81.95;99306.31;330051;29;18040;-82
2023/12/30 00:24:59;;;;;;;1.13;0.70;;;;;;;9.97;81.70;99301.19;332758;29;4986;-82
2023/12/30 00:25:11;;;;;;;1.98;1.00;;;;;;;10.03;81.71;99300.13;335543;28;4593;-82
2023/12/30 00:25:23;;;;;;;2.42;1.00;;;;;;;10.04;81.17;99300.94;336781;28;4554;-82
2023/12/30 00:25:35;;;;;;;2.28;0.80;;;;;;;10.09;81.39;99296.47;334622;28;18989;-82
2023/12/30 00:25:47;;;;;;;1.23;0.70;;;;;;;10.07;81.19;99306.06;335902;28;4724;-82
2023/12/30 00:25:59;;;;;;;1.40;0.80;;;;;;;10.06;81.61;99299.16;333776;28;18132;-82
2023/12/30 00:26:21;;;;;;;1.38;0.82;;;;;;;10.16;80.79;99300.50;336035;29;4573;-82
2023/12/30 00:26:33;;;;;;;1.30;0.90;;;;;;;10.11;80.72;99292.06;332490;29;18082;-82
2023/12/30 00:26:45;;;;;;;0.80;0.70;;;;;;;10.18;80.89;99298.69;328229;29;18732;-82
2023/12/30 00:26:57;;;;;;;0.80;0.60;;;;;;;10.18;80.65;99298.69;335672;29;4571;-82
2023/12/30 00:27:09;;;;;;;0.73;0.50;;;;;;;10.23;80.64;99302.00;334649;28;10850;-82
2023/12/30 00:27:21;;;;;;;1.45;0.60;;;;;;;10.28;80.18;99299.22;334105;28;18550;-82
2023/12/30 00:27:34;;;;;;;1.42;0.60;;;;;;;10.31;80.12;99299.97;335804;29;4874;-82
2023/12/30 00:27:49;;;;;;;1.17;0.60;;;;;;;10.30;79.64;99306.09;327653;29;12602;-82
2023/12/30 00:28:02;;;;;;;1.33;0.70;;;;;;;10.21;80.09;99303.78;332826;29;17989;-82
2023/12/30 00:28:14;;;;;;;2.00;0.70;;;;;;;10.14;80.79;99297.13;336608;28;5322;-82
2023/12/30 00:28:26;;;;;;;1.80;0.63;;;;;;;10.10;80.67;99312.00;333779;28;16474;-82
2023/12/30 00:28:38;;;;;;;1.27;0.73;;;;;;;10.08;80.39;99303.41;335354;29;4574;-82
2023/12/30 00:28:52;;;;;;;1.45;0.90;;;;;;;10.05;81.24;99302.66;332851;29;19687;-82
2023/12/30 00:29:04;;;;;;;2.13;0.98;;;;;;;10.10;80.78;99303.31;330496;29;4726;-82
2023/12/30 00:29:16;;;;;;;2.03;0.90;;;;;;;10.06;81.03;99302.63;332862;29;19386;-82
2023/12/30 00:29:28;;;;;;;1.67;1.00;;;;;;;10.05;80.92;99294.88;335672;29;4718;-82
2023/12/30 00:29:40;;;;;;;1.50;0.80;;;;;;;10.13;80.57;99300.63;332714;29;18273;-82
2023/12/30 00:29:52;;;;;;;1.70;0.82;;;;;;;10.14;80.88;99287.59;335508;28;5943;-82
2023/12/30 00:30:05;;;;;;;0.95;0.70;;;;;;;10.24;80.76;99300.22;334835;29;6298;-82
2023/12/30 00:30:17;;;;;;;1.48;0.80;;;;;;;10.30;80.17;99298.31;332595;29;18755;-82
2023/12/30 00:30:29;;;;;;;1.50;0.68;;;;;;;10.31;79.86;99292.19;335787;29;4551;-82
2023/12/30 00:30:41;;;;;;;1.50;0.55;;;;;;;10.27;80.10;99300.97;328075;28;4813;-82
2023/12/30 00:30:54;;;;;;;0.90;0.50;;;;;;;10.18;79.98;99303.91;334293;29;4621;-82
2023/12/30 00:31:06;;;;;;;0.88;0.50;;;;;;;10.22;79.96;99297.69;331121;29;12484;-82
2023/12/30 00:31:28;;;;;;;0.82;0.55;;;;;;;10.28;80.15;99289.69;334251;29;4571;-82
2023/12/30 00:31:40;;;;;;;1.20;0.70;;;;;;;10.31;79.66;99305.19;330169;29;16650;-83
2023/12/30 00:31:52;;;;;;;0.73;0.70;;;;;;;10.41;79.35;99302.25;332618;29;16169;-82
2023/12/30 00:32:05;;;;;;;1.25;0.70;;;;;;;10.38;79.38;99301.47;335353;29;5099;-82
2023/12/30 00:32:17;;;;;;;1.50;0.80;;;;;;;10.34;79.12;99297.28;332878;29;17218;-82
2023/12/30 00:32:29;;;;;;;1.42;0.85;;;;;;;10.42;79.10;99296.13;335617;29;5399;-82
2023/12/30 00:32:41;;;;;;;1.10;0.77;;;;;;;10.38;79.61;99301.47;333414;29;4611;-82
2023/12/30 00:32:54;;;;;;;1.10;0.70;;;;;;;10.33;79.57;99298.19;335388;29;4555;-82
2023/12/30 00:33:06;;;;;;;1.00;0.60;;;;;;;10.31;79.60;99299.97;334862;29;4856;-82
2023/12/30 00:33:18;;;;;;;1.02;0.63;;;;;;;10.35;79.92;99301.56;333253;28;18368;-82
2023/12/30 00:33:30;;;;;;;1.20;0.80;;;;;;;10.29;79.63;99301.75;334769;29;4840;-82
2023/12/30 00:33:44;;;;;;;1.40;0.90;;;;;;;10.21;79.65;99309.00;331710;29;18499;-82
2023/12/30 00:33:58;;;;;;;1.23;0.75;;;;;;;10.24;79.98;99293.31;335263;29;4561;-82
2023/12/30 00:34:10;;;;;;;1.15;0.70;;;;;;;10.27;79.99;99308.75;331909;29;16286;-82
2023/12/30 00:34:22;;;;;;;2.00;0.60;;;;;;;10.20;79.83;99317.66;331668;29;16355;-82
2023/12/30 00:34:34;;;;;;;2.03;0.70;;;;;;;10.17;80.38;99305.66;335760;28;5631;-81
2023/12/30 00:34:47;;;;;;;1.63;0.70;;;;;;;10.18;80.29;99303.91;332700;29;4721;-82
2023/12/30 00:34:59;;;;;;;0.90;0.70;;;;;;;10.24;79.95;99308.03;326966;29;17168;-82
2023/12/30 00:35:11;;;;;;;1.00;0.60;;;;;;;10.26;80.32;99311.41;334288;29;5304;-82
2023/12/30 00:35:23;;;;;;;0.98;0.60;;;;;;;10.26;80.10;99299.28;331300;29;19405;-83
2023/12/30 00:35:35;;;;;;;1.65;0.60;;;;;;;10.23;80.05;99312.38;334141;29;4950;-82
2023/12/30 00:35:47;;;;;;;1.80;0.70;;;;;;;10.25;79.97;99301.94;332279;29;16659;-82
2023/12/30 00:36:03;;;;;;;1.92;1.00;;;;;;;10.19;80.14;99313.41;335789;29;4551;-82
2023/12/30 00:36:15;;;;;;;2.13;1.02;;;;;;;10.20;79.93;99315.06;331631;29;19485;-81
2023/12/30 00:36:28;;;;;;;1.77;0.65;;;;;;;10.18;80.45;99309.09;335266;29;4567;-82
2023/12/30 00:36:43;;;;;;;1.33;0.60;;;;;;;10.15;80.48;99314.41;332592;29;18140;-82
2023/12/30 00:36:55;;;;;;;1.20;0.63;;;;;;;10.19;80.37;99313.41;333541;28;18062;-82
2023/12/30 00:37:07;;;;;;;0.98;0.57;;;;;;;10.23;80.05;99307.19;336653;29;4775;-82
2023/12/30 00:37:20;;;;;;;0.60;0.52;;;;;;;10.23;80.40;99325.38;333698;28;18089;-81
2023/12/30 00:37:32;;;;;;;1.38;0.70;;;;;;;10.22;80.11;99315.88;336694;28;4869;-82
2023/12/30 00:37:44;;;;;;;1.27;0.75;;;;;;;10.26;79.95;99314.88;333611;28;18187;-82
2023/12/30 00:37:56;;;;;;;1.13;0.65;;;;;;;10.25;80.28;99304.53;332226;28;4527;-82
2023/12/30 00:38:08;;;;;;;1.20;0.60;;;;;;;10.33;79.70;99300.78;333438;28;18081;-82
2023/12/30 00:38:20;;;;;;;1.20;0.60;;;;;;;10.29;79.95;99299.16;335551;29;5150;-82
2023/12/30 00:38:35;;;;;;;1.23;0.60;;;;;;;10.21;80.03;99306.41;332233;29;16853;-82
2023/12/30 00:38:47;;;;;;;1.15;0.65;;;;;;;10.16;80.56;99306.56;334614;29;4704;-82
2023/12/30 00:38:59;;;;;;;1.00;0.60;;;;;;;10.19;80.76;99316.00;332081;29;18175;-82
2023/12/30 00:39:11;;;;;;;0.88;0.60;;;;;;;10.22;80.82;99312.44;329882;29;4603;-82
2023/12/30 00:39:23;;;;;;;1.10;0.70;;;;;;;10.28;80.43;99310.47;331223;29;16497;-82
2023/12/30 00:39:39;;;;;;;1.10;0.70;;;;;;;10.37;79.96;99314.50;332903;29;4595;-82
2023/12/30 00:39:53;;;;;;;0.93;0.60;;;;;;;10.35;79.77;99304.16;331161;29;18020;-82
2023/12/30 00:40:06;;;;;;;0.80;0.60;;;;;;;10.28;80.32;99299.22;326602;29;18117;-82
2023/12/30 00:40:18;;;;;;;0.75;0.60;;;;;;;10.27;80.57;99306.16;329491;29;18258;-82
2023/12/30 00:40:38;;;;;;;0.98;0.63;;;;;;;10.16;80.64;99319.56;329639;29;17447;-82
2023/12/30 00:40:50;;;;;;;1.10;0.75;;;;;;;10.18;81.03;99319.47;326246;29;18619;-82
2023/12/30 00:41:02;;;;;;;1.30;0.80;;;;;;;10.10;81.26;99321.50;334253;29;5643;-82
2023/12/30 00:41:14;;;;;;;1.20;0.70;;;;;;;10.16;81.18;99310.91;333229;28;17384;-82
2023/12/30 00:41:26;;;;;;;0.88;0.52;;;;;;;10.12;81.81;99306.72;333195;29;4578;-82
2023/12/30 00:41:39;;;;;;;0.80;0.50;;;;;;;10.07;82.07;99290.47;331630;29;4935;-82
2023/12/30 00:41:51;;;;;;;0.93;0.52;;;;;;;10.05;82.23;99302.66;333979;29;4603;-82
2023/12/30 00:42:03;;;;;;;0.73;0.50;;;;;;;9.96;82.47;99320.28;333976;29;4576;-82
2023/12/30 00:42:15;;;;;;;0.70;0.47;;;;;;;9.90;82.84;99315.28;331681;29;17976;-82
2023/12/30 00:42:27;;;;;;;0.73;0.50;;;;;;;9.81;83.94;99310.41;333603;29;5293;-82
2023/12/30 00:42:39;;;;;;;0.90;0.70;;;;;;;9.74;84.01;99319.34;331287;29;18277;-82
2023/12/30 00:42:52;;;;;;;0.93;0.80;;;;;;;9.82;84.07;99296.53;334210;29;4598;-82
2023/12/30 00:43:04;;;;;;;0.70;0.60;;;;;;;9.85;83.96;99327.56;332027;29;7023;-82
2023/12/30 00:43:17;;;;;;;0.85;0.50;;;;;;;9.83;83.76;99308.59;334120;29;4543;-82
2023/12/30 00:43:29;;;;;;;1.70;0.80;;;;;;;9.81;83.74;99315.59;333683;29;18200;-82
2023/12/30 00:43:42;;;;;;;1.20;0.70;;;;;;;9.88;83.60;99326.63;328324;29;18497;-82
2023/12/30 00:43:54;;;;;;;1.13;0.52;;;;;;;9.82;83.70;99317.31;332988;29;4586;-82
2023/12/30 00:44:06;;;;;;;1.83;0.60;;;;;;;9.79;84.02;99309.63;328600;29;18027;-83
2023/12/30 00:44:19;;;;;;;1.73;0.50;;;;;;;9.77;83.95;99319.22;334373;29;4780;-82
2023/12/30 00:44:31;;;;;;;0.80;0.40;;;;;;;9.72;84.42;99316.78;332759;29;18879;-83
2023/12/30 00:44:43;;;;;;;1.00;0.60;;;;;;;9.75;84.44;99311.47;334946;29;4631;-82
2023/12/30 00:44:55;;;;;;;1.15;0.70;;;;;;;9.70;84.50;99317.72;332062;29;12399;-82
2023/12/30 00:45:07;;;;;;;1.42;0.68;;;;;;;9.67;84.64;99325.63;330159;29;5013;-82
2023/12/30 00:45:19;;;;;;;1.15;0.60;;;;;;;9.70;84.78;99312.53;334822;29;4776;-82
2023/12/30 00:45:31;;;;;;;1.35;0.68;;;;;;;9.69;84.77;99321.22;333294;29;18480;-82
2023/12/30 00:45:43;;;;;;;1.10;0.60;;;;;;;9.68;85.55;99319.50;334824;28;5393;-82
2023/12/30 00:45:58;;;;;;;1.20;0.70;;;;;;;9.67;85.33;99317.84;330117;29;18448;-82
2023/12/30 00:46:10;;;;;;;1.05;0.60;;;;;;;9.68;85.40;99329.91;333246;28;12897;-82
2023/12/30 00:46:22;;;;;;;1.25;0.60;;;;;;;9.68;84.94;99348.94;335315;28;4552;-82
2023/12/30 00:46:34;;;;;;;0.95;0.55;;;;;;;9.70;84.63;99320.31;335862;28;5414;-82
2023/12/30 00:46:46;;;;;;;0.77;0.50;;;;;;;9.68;84.82;99314.31;331019;28;18418;-82
2023/12/30 00:46:58;;;;;;;0.95;0.57;;;;;;;9.73;84.57;99320.22;335345;29;5073;-83
2023/12/30 00:47:11;;;;;;;1.80;0.63;;;;;;;9.74;84.71;99316.72;333147;28;10913;-82
2023/12/30 00:47:23;;;;;;;2.83;0.77;;;;;;;9.72;84.84;99326.31;336879;28;5622;-82
2023/12/30 00:47:35;;;;;;;2.80;0.95;;;;;;;9.74;84.96;99308.94;332039;28;16930;-83
2023/12/30 00:47:47;;;;;;;1.23;0.90;;;;;;;9.86;84.23;99313.72;336164;28;4696;-82
2023/12/30 00:48:02;;;;;;;0.80;0.60;;;;;;;9.97;84.02;99321.09;329742;28;18869;-82
2023/12/30 00:48:14;;;;;;;1.65;0.52;;;;;;;10.00;84.01;99314.06;336706;28;4828;-82
2023/12/30 00:48:26;;;;;;;1.75;0.50;;;;;;;10.00;84.17;99306.28;332905;29;5282;-82
2023/12/30 00:48:39;;;;;;;1.48;0.45;;;;;;;10.05;83.11;99346.81;334159;29;4623;-82
2023/12/30 00:48:51;;;;;;;0.47;0.40;;;;;;;10.03;82.94;99327.84;333128;29;7583;-82
2023/12/30 00:49:09;;;;;;;0.57;0.40;;;;;;;9.96;83.27;99324.59;332376;29;18629;-82
2023/12/30 00:49:21;;;;;;;1.20;0.50;;;;;;;9.97;83.23;99321.94;328319;28;17976;-82
2023/12/30 00:49:34;;;;;;;1.40;0.52;;;;;;;9.94;83.40;99314.28;335370;29;4892;-82
2023/12/30 00:49:46;;;;;;;1.10;0.60;;;;;;;9.92;83.34;99328.19;332792;29;10958;-82
2023/12/30 00:49:58;;;;;;;0.73;0.60;;;;;;;9.90;83.20;99325.69;335252;29;4612;-82
2023/12/30 00:50:10;;;;;;;2.00;0.70;;;;;;;9.87;83.55;99324.94;335657;29;5388;-82
2023/12/30 00:50:22;;;;;;;2.10;0.77;;;;;;;9.96;83.71;99322.88;330079;29;4839;-82
2023/12/30 00:50:34;;;;;;;0.60;0.60;;;;;;;9.95;nan;99328.09;336458;28;4583;-82
2023/12/30 00:50:46;;;;;;;0.63;0.55;;;;;;;9.90;83.33;99336.06;335250;28;4574;-82
2023/12/30 00:51:00;;;;;;;0.43;0.40;;;;;;;9.95;83.70;99328.94;327142;29;17851;-82
2023/12/30 00:51:12;;;;;;;0.98;0.50;;;;;;;9.96;83.55;99335.84;331321;29;17960;-82
2023/12/30 00:51:24;;;;;;;1.52;0.63;;;;;;;10.04;82.92;99337.31;334665;29;5320;-82
2023/12/30 00:51:37;;;;;;;2.03;0.75;;;;;;;10.05;83.28;99326.03;331684;29;13278;-82
2023/12/30 00:51:49;;;;;;;1.80;0.70;;;;;;;10.08;82.77;99319.00;333518;29;4569;-82
2023/12/30 00:52:01;;;;;;;1.48;0.60;;;;;;;10.14;82.55;99317.91;334408;29;4565;-82
2023/12/30 00:52:13;;;;;;;1.05;0.50;;;;;;;10.12;83.04;99335.28;326372;29;17860;-82
2023/12/30 00:52:25;;;;;;;0.63;0.55;;;;;;;10.08;83.13;99323.31;334001;29;4635;-82
2023/12/30 00:52:37;;;;;;;0.60;0.50;;;;;;;10.03;82.53;99322.66;326894;29;18435;-82
2023/12/30 00:52:49;;;;;;;0.55;0.50;;;;;;;10.07;83.16;99327.66;333928;29;4645;-82
2023/12/30 00:53:01;;;;;;;0.68;0.57;;;;;;;10.00;83.22;99337.44;332358;29;4656;-81
2023/12/30 00:53:14;;;;;;;1.42;0.65;;;;;;;9.98;83.61;99334.03;331229;29;18074;-82
2023/12/30 00:53:27;;;;;;;1.90;0.70;;;;;;;10.02;83.46;99339.13;332627;29;4579;-82
2023/12/30 00:53:39;;;;;;;1.90;0.73;;;;;;;10.14;83.26;99338.69;330003;29;18081;-82
2023/12/30 00:53:51;;;;;;;1.10;0.68;;;;;;;10.08;83.09;99318.13;329632;29;5281;-82
2023/12/30 00:54:03;;;;;;;0.80;0.60;;;;;;;10.08;83.05;99326.78;331645;29;16237;-82
2023/12/30 00:54:15;;;;;;;0.70;0.60;;;;;;;10.05;83.40;99326.03;335240;29;4625;-82
2023/12/30 00:54:27;;;;;;;0.70;0.60;;;;;;;10.13;83.45;99331.81;335612;29;4540;-82
2023/12/30 00:54:48;;;;;;;0.77;0.60;;;;;;;10.04;83.32;99325.19;330515;29;17193;-82
2023/12/30 00:55:02;;;;;;;1.83;0.80;;;;;;;10.10;83.55;99317.19;334496;29;4782;-82
2023/12/30 00:55:15;;;;;;;1.50;0.65;;;;;;;10.14;83.25;99292.78;327219;29;18258;-82
2023/12/30 00:55:27;;;;;;;1.55;0.65;;;;;;;10.20;82.55;99315.94;333108;29;4577;-82
2023/12/30 00:55:39;;;;;;;0.90;0.60;;;;;;;10.20;82.33;99307.28;330869;29;17767;-82
2023/12/30 00:55:53;;;;;;;0.88;0.50;;;;;;;10.21;82.55;99324.56;334945;29;4622;-82
2023/12/30 00:56:06;;;;;;;0.82;0.57;;;;;;;10.28;82.28;99336.44;331180;29;17855;-82
2023/12/30 00:56:18;;;;;;;0.68;0.60;;;;;;;10.20;82.88;99330.66;331410;29;9171;-82
2023/12/30 00:56:30;;;;;;;0.60;0.60;;;;;;;10.17;82.52;99333.38;334741;29;4562;-82
2023/12/30 00:56:42;;;;;;;0.45;0.45;;;;;;;10.20;82.74;99330.66;334052;29;4618;-82
2023/12/30 00:56:55;;;;;;;1.10;0.55;;;;;;;10.17;83.30;99338.56;329485;29;18762;-82
2023/12/30 00:57:07;;;;;;;1.23;0.63;;;;;;;10.09;83.08;99325.03;331758;29;5489;-82
2023/12/30 00:57:19;;;;;;;1.27;0.70;;;;;;;10.14;83.48;99321.38;329470;29;16245;-82
2023/12/30 00:57:31;;;;;;;0.73;0.52;;;;;;;10.09;83.52;99330.22;332587;29;4672;-82
2023/12/30 00:57:43;;;;;;;1.10;0.50;;;;;;;10.11;83.68;99325.81;333585;29;4654;-82
2023/12/30 00:57:56;;;;;;;1.00;0.50;;;;;;;10.06;83.72;99325.13;331164;29;18037;-82
2023/12/30 00:58:08;;;;;;;0.85;0.60;;;;;;;10.06;83.66;99331.19;333216;29;5150;-82
2023/12/30 00:58:23;;;;;;;0.60;0.60;;;;;;;10.11;83.75;99336.19;327271;29;19046;-82
2023/12/30 00:58:35;;;;;;;1.23;0.45;;;;;;;10.08;83.78;99329.38;333072;29;18882;-82
2023/12/30 00:58:47;;;;;;;1.40;0.60;;;;;;;10.02;84.16;99347.78;334991;29;4670;-82
2023/12/30 00:58:59;;;;;;;1.02;0.65;;;;;;;10.02;83.97;99342.59;332485;28;16671;-82
2023/12/30 00:59:12;;;;;;;1.27;0.70;;;;;;;10.04;84.00;99337.31;336217;28;4673;-82
2023/12/30 00:59:24;;;;;;;1.58;0.75;;;;;;;10.03;84.27;99346.00;334462;28;5127;-82
2023/12/30 00:59:36;;;;;;;1.67;0.80;;;;;;;10.07;84.23;99337.22;335638;28;4594;-82
2023/12/30 00:59:48;;;;;;;1.80;0.70;;;;;;;10.08;84.47;99354.47;336532;28;4602;-82
2023/12/30 01:00:00;;;;;;;1.02;0.47;;;;;;;10.09;84.13;99340.59;329058;28;4705;-83
2023/12/30 01:00:12;;;;;;;1.10;0.50;;;;;;;10.05;84.79;99339.03;336507;28;4568;-82
2023/12/30 01:00:24;;;;;;;0.95;0.60;;;;;;;10.04;84.74;99358.94;334285;29;12323;-83
2023/12/30 01:00:37;;;;;;;1.40;0.68;;;;;;;10.09;85.06;99343.19;331357;28;17684;-82